CEB124 RPVM-RPVB
Flight info
| Callsign | CEB124 |
|---|---|
| Flight time | 0h 24m |
| Altitude | 14000 |
| Route | PARAO1Q PARAO W6A KADSO KADSO3P |
| Aircraft | A20N/M-SDE2E3FGHIRWXY/LB1 |
Departure
| Time | 2026-04-25 22:59 |
|---|---|
| Airport | Mactan Cebu International Airport (RPVM) |
Arrival
| Time | 2026-04-25 23:23 |
|---|---|
| Airport | Bacolod-Silay International Airport (RPVB) |
| Time | Latitude | Longitude | Altitude | Speed | Heading |
|---|---|---|---|---|---|
| 2026-04-25 22:28 | 10.31554 | 123.97973 | 36 ft | 0 kts | 314° |
| 2026-04-25 22:46 | 10.31553 | 123.97974 | 36 ft | 1 kts | 314° |
| 2026-04-25 22:46 | 10.31543 | 123.97984 | 36 ft | 2 kts | 314° |
| 2026-04-25 22:47 | 10.31532 | 123.97996 | 36 ft | 2 kts | 314° |
| 2026-04-25 22:47 | 10.31522 | 123.98006 | 36 ft | 2 kts | 314° |
| 2026-04-25 22:47 | 10.31514 | 123.98014 | 36 ft | 0 kts | 314° |
| 2026-04-25 22:47 | 10.31506 | 123.98025 | 36 ft | 2 kts | 282° |
| 2026-04-25 22:48 | 10.31507 | 123.98041 | 36 ft | 2 kts | 250° |
| 2026-04-25 22:48 | 10.31512 | 123.98051 | 36 ft | 0 kts | 228° |
| 2026-04-25 22:48 | 10.31517 | 123.98055 | 36 ft | 0 kts | 224° |
| 2026-04-25 22:51 | 10.31509 | 123.98048 | 36 ft | 6 kts | 224° |
| 2026-04-25 22:51 | 10.31465 | 123.98004 | 36 ft | 9 kts | 224° |
| 2026-04-25 22:51 | 10.31415 | 123.97954 | 35 ft | 10 kts | 227° |
| 2026-04-25 22:52 | 10.31356 | 123.97907 | 35 ft | 10 kts | 188° |
| 2026-04-25 22:52 | 10.31289 | 123.97932 | 35 ft | 10 kts | 153° |
| 2026-04-25 22:52 | 10.31226 | 123.97971 | 35 ft | 10 kts | 167° |
| 2026-04-25 22:52 | 10.31179 | 123.97955 | 35 ft | 11 kts | 218° |
| 2026-04-25 22:53 | 10.31101 | 123.97875 | 35 ft | 12 kts | 225° |
| 2026-04-25 22:53 | 10.31070 | 123.97844 | 35 ft | 13 kts | 225° |
| 2026-04-25 22:53 | 10.31027 | 123.97802 | 35 ft | 11 kts | 224° |
| 2026-04-25 22:54 | 10.30967 | 123.97742 | 35 ft | 12 kts | 225° |
| 2026-04-25 22:54 | 10.30904 | 123.97677 | 35 ft | 13 kts | 224° |
| 2026-04-25 22:54 | 10.30834 | 123.97607 | 35 ft | 14 kts | 225° |
| 2026-04-25 22:54 | 10.30759 | 123.97532 | 35 ft | 15 kts | 225° |
| 2026-04-25 22:55 | 10.30683 | 123.97454 | 35 ft | 15 kts | 226° |
| 2026-04-25 22:55 | 10.30606 | 123.97376 | 35 ft | 16 kts | 226° |
| 2026-04-25 22:55 | 10.30554 | 123.97320 | 35 ft | 7 kts | 219° |
| 2026-04-25 22:55 | 10.30507 | 123.97282 | 35 ft | 9 kts | 219° |
| 2026-04-25 22:56 | 10.30457 | 123.97234 | 35 ft | 10 kts | 224° |
| 2026-04-25 22:56 | 10.30401 | 123.97178 | 35 ft | 11 kts | 223° |
| 2026-04-25 22:56 | 10.30377 | 123.97164 | 35 ft | 0 kts | 194° |
| 2026-04-25 22:57 | 10.30369 | 123.97163 | 35 ft | 3 kts | 189° |
| 2026-04-25 22:57 | 10.30338 | 123.97173 | 35 ft | 6 kts | 140° |
| 2026-04-25 22:57 | 10.30305 | 123.97208 | 35 ft | 5 kts | 101° |
| 2026-04-25 22:57 | 10.30315 | 123.97230 | 35 ft | 0 kts | 47° |
| 2026-04-25 22:58 | 10.30383 | 123.97300 | 35 ft | 46 kts | 44° |
| 2026-04-25 22:58 | 10.30802 | 123.97720 | 36 ft | 119 kts | 45° |
| 2026-04-25 22:59 | 10.31526 | 123.98448 | 116 ft | 167 kts | 45° |
| 2026-04-25 22:59 | 10.32350 | 123.99292 | 798 ft | 168 kts | 47° |
| 2026-04-25 22:59 | 10.33131 | 124.00089 | 1686 ft | 160 kts | 46° |
| 2026-04-25 22:59 | 10.33925 | 124.00885 | 2405 ft | 164 kts | 46° |
| 2026-04-25 23:00 | 10.34894 | 124.01483 | 3070 ft | 176 kts | 13° |
| 2026-04-25 23:00 | 10.36154 | 124.01244 | 3640 ft | 199 kts | 336° |
| 2026-04-25 23:00 | 10.37391 | 124.00446 | 4128 ft | 222 kts | 330° |
| 2026-04-25 23:00 | 10.38725 | 123.99551 | 4657 ft | 242 kts | 330° |
| 2026-04-25 23:01 | 10.40197 | 123.98580 | 5248 ft | 260 kts | 330° |
| 2026-04-25 23:01 | 10.41775 | 123.97559 | 5826 ft | 278 kts | 330° |
| 2026-04-25 23:01 | 10.43436 | 123.96497 | 6542 ft | 290 kts | 330° |
| 2026-04-25 23:01 | 10.45157 | 123.95401 | 7436 ft | 294 kts | 331° |
| 2026-04-25 23:02 | 10.46879 | 123.94306 | 8317 ft | 297 kts | 331° |
| 2026-04-25 23:02 | 10.48653 | 123.93183 | 9176 ft | 300 kts | 330° |
| 2026-04-25 23:02 | 10.50413 | 123.92069 | 9999 ft | 303 kts | 330° |
| 2026-04-25 23:02 | 10.52214 | 123.90934 | 10669 ft | 311 kts | 330° |
| 2026-04-25 23:03 | 10.54098 | 123.89745 | 11068 ft | 329 kts | 330° |
| 2026-04-25 23:03 | 10.56107 | 123.88477 | 11421 ft | 347 kts | 329° |
| 2026-04-25 23:03 | 10.58134 | 123.87052 | 11728 ft | 366 kts | 322° |
| 2026-04-25 23:03 | 10.60050 | 123.85226 | 12012 ft | 385 kts | 313° |
| 2026-04-25 23:04 | 10.61764 | 123.83048 | 12280 ft | 401 kts | 307° |
| 2026-04-25 23:04 | 10.63423 | 123.80737 | 12569 ft | 415 kts | 306° |
| 2026-04-25 23:04 | 10.65135 | 123.78320 | 13064 ft | 421 kts | 306° |
| 2026-04-25 23:04 | 10.66850 | 123.75906 | 13590 ft | 424 kts | 306° |
| 2026-04-25 23:05 | 10.68582 | 123.73476 | 13872 ft | 426 kts | 307° |
| 2026-04-25 23:05 | 10.70322 | 123.71046 | 13911 ft | 425 kts | 307° |
| 2026-04-25 23:05 | 10.72072 | 123.68607 | 13912 ft | 425 kts | 307° |
| 2026-04-25 23:05 | 10.73824 | 123.66169 | 13910 ft | 425 kts | 307° |
| 2026-04-25 23:06 | 10.75570 | 123.63739 | 13910 ft | 425 kts | 307° |
| 2026-04-25 23:06 | 10.77308 | 123.61321 | 13910 ft | 424 kts | 307° |
| 2026-04-25 23:06 | 10.79057 | 123.58886 | 13799 ft | 424 kts | 307° |
| 2026-04-25 23:06 | 10.80791 | 123.56473 | 13562 ft | 422 kts | 307° |
| 2026-04-25 23:07 | 10.82513 | 123.54076 | 13328 ft | 420 kts | 307° |
| 2026-04-25 23:07 | 10.84219 | 123.51698 | 13097 ft | 419 kts | 306° |
| 2026-04-25 23:07 | 10.85953 | 123.49279 | 12858 ft | 418 kts | 307° |
| 2026-04-25 23:07 | 10.87658 | 123.46901 | 12626 ft | 417 kts | 307° |
| 2026-04-25 23:08 | 10.89350 | 123.44544 | 12395 ft | 416 kts | 307° |
| 2026-04-25 23:08 | 10.91103 | 123.42175 | 12160 ft | 414 kts | 309° |
| 2026-04-25 23:08 | 10.92967 | 123.39973 | 11924 ft | 412 kts | 314° |
| 2026-04-25 23:08 | 10.95003 | 123.37881 | 11687 ft | 411 kts | 317° |
| 2026-04-25 23:09 | 10.97076 | 123.35883 | 11447 ft | 409 kts | 318° |
| 2026-04-25 23:09 | 10.99131 | 123.33899 | 11218 ft | 407 kts | 315° |
| 2026-04-25 23:09 | 11.00734 | 123.31566 | 10890 ft | 397 kts | 293° |
| 2026-04-25 23:09 | 11.01253 | 123.28901 | 10652 ft | 383 kts | 269° |
| 2026-04-25 23:10 | 11.00808 | 123.26272 | 10425 ft | 370 kts | 255° |
| 2026-04-25 23:10 | 11.00169 | 123.23773 | 10183 ft | 358 kts | 255° |
| 2026-04-25 23:10 | 10.99563 | 123.21359 | 9947 ft | 348 kts | 256° |
| 2026-04-25 23:10 | 10.99001 | 123.19014 | 9813 ft | 334 kts | 256° |
| 2026-04-25 23:11 | 10.98485 | 123.16779 | 9696 ft | 321 kts | 257° |
| 2026-04-25 23:11 | 10.97992 | 123.14586 | 9573 ft | 309 kts | 257° |
| 2026-04-25 23:11 | 10.97524 | 123.12479 | 9454 ft | 306 kts | 257° |
| 2026-04-25 23:11 | 10.97060 | 123.10375 | 9334 ft | 307 kts | 257° |
| 2026-04-25 23:12 | 10.96592 | 123.08247 | 9213 ft | 306 kts | 257° |
| 2026-04-25 23:12 | 10.96130 | 123.06146 | 9095 ft | 306 kts | 257° |
| 2026-04-25 23:12 | 10.95660 | 123.04011 | 8975 ft | 306 kts | 257° |
| 2026-04-25 23:12 | 10.95198 | 123.01913 | 8861 ft | 306 kts | 257° |
| 2026-04-25 23:13 | 10.94734 | 122.99801 | 8743 ft | 306 kts | 257° |
| 2026-04-25 23:13 | 10.94151 | 122.97720 | 8605 ft | 305 kts | 243° |
| 2026-04-25 23:13 | 10.92865 | 122.96050 | 8482 ft | 300 kts | 216° |
| 2026-04-25 23:13 | 10.91099 | 122.94972 | 8380 ft | 297 kts | 205° |
| 2026-04-25 23:14 | 10.89247 | 122.94010 | 8266 ft | 296 kts | 204° |
| 2026-04-25 23:14 | 10.87412 | 122.93057 | 8142 ft | 296 kts | 205° |
| 2026-04-25 23:14 | 10.85592 | 122.92094 | 8018 ft | 295 kts | 205° |
| 2026-04-25 23:14 | 10.83767 | 122.91116 | 7896 ft | 295 kts | 205° |
| 2026-04-25 23:15 | 10.81951 | 122.90132 | 7778 ft | 295 kts | 205° |
| 2026-04-25 23:15 | 10.80123 | 122.89138 | 7655 ft | 295 kts | 205° |
| 2026-04-25 23:15 | 10.78307 | 122.88150 | 7534 ft | 294 kts | 205° |
| 2026-04-25 23:15 | 10.76512 | 122.87173 | 7304 ft | 294 kts | 205° |
| 2026-04-25 23:16 | 10.74708 | 122.86189 | 6891 ft | 295 kts | 205° |
| 2026-04-25 23:16 | 10.72885 | 122.85196 | 6355 ft | 300 kts | 205° |
| 2026-04-25 23:16 | 10.71024 | 122.84183 | 5924 ft | 300 kts | 205° |
| 2026-04-25 23:16 | 10.69193 | 122.83188 | 5615 ft | 295 kts | 204° |
| 2026-04-25 23:17 | 10.67283 | 122.82572 | 5284 ft | 283 kts | 178° |
| 2026-04-25 23:17 | 10.65452 | 122.83024 | 4964 ft | 269 kts | 144° |
| 2026-04-25 23:17 | 10.64182 | 122.84357 | 4625 ft | 258 kts | 117° |
| 2026-04-25 23:17 | 10.63341 | 122.85969 | 4251 ft | 257 kts | 115° |
| 2026-04-25 23:18 | 10.62525 | 122.87531 | 3897 ft | 247 kts | 116° |
| 2026-04-25 23:18 | 10.61715 | 122.89022 | 3510 ft | 237 kts | 116° |
| 2026-04-25 23:18 | 10.60968 | 122.90461 | 3341 ft | 224 kts | 106° |
| 2026-04-25 23:18 | 10.60947 | 122.91944 | 3176 ft | 201 kts | 64° |
| 2026-04-25 23:19 | 10.61855 | 122.92918 | 3090 ft | 193 kts | 31° |
| 2026-04-25 23:19 | 10.63066 | 122.93520 | 3040 ft | 187 kts | 30° |
| 2026-04-25 23:19 | 10.64180 | 122.94104 | 2928 ft | 175 kts | 31° |
| 2026-04-25 23:19 | 10.65225 | 122.94681 | 2747 ft | 167 kts | 32° |
| 2026-04-25 23:20 | 10.66233 | 122.95255 | 2463 ft | 165 kts | 33° |
| 2026-04-25 23:20 | 10.67195 | 122.95809 | 2220 ft | 154 kts | 33° |
| 2026-04-25 23:20 | 10.68084 | 122.96323 | 2035 ft | 142 kts | 33° |
| 2026-04-25 23:20 | 10.68927 | 122.96813 | 1835 ft | 138 kts | 33° |
| 2026-04-25 23:21 | 10.69760 | 122.97299 | 1657 ft | 137 kts | 33° |
| 2026-04-25 23:21 | 10.70594 | 122.97785 | 1476 ft | 137 kts | 33° |
| 2026-04-25 23:21 | 10.71420 | 122.98267 | 1294 ft | 136 kts | 32° |
| 2026-04-25 23:21 | 10.72248 | 122.98750 | 1111 ft | 136 kts | 32° |
| 2026-04-25 23:22 | 10.73070 | 122.99230 | 927 ft | 136 kts | 32° |
| 2026-04-25 23:22 | 10.73889 | 122.99707 | 750 ft | 135 kts | 32° |
| 2026-04-25 23:22 | 10.74710 | 123.00186 | 568 ft | 135 kts | 32° |
| 2026-04-25 23:23 | 10.76322 | 123.01128 | 183 ft | 130 kts | 32° |
| 2026-04-25 23:23 | 10.77094 | 123.01581 | 46 ft | 125 kts | 32° |
| 2026-04-25 23:23 | 10.77764 | 123.01975 | 37 ft | 89 kts | 29° |
| 2026-04-25 23:23 | 10.78153 | 123.02200 | 37 ft | 31 kts | 27° |
| 2026-04-25 23:24 | 10.78265 | 123.02254 | 37 ft | 13 kts | 14° |
| 2026-04-25 23:24 | 10.78306 | 123.02289 | 37 ft | 0 kts | 100° |
| 2026-04-25 23:24 | 10.78288 | 123.02285 | 38 ft | 10 kts | 208° |
| 2026-04-25 23:24 | 10.78207 | 123.02233 | 37 ft | 14 kts | 212° |
| 2026-04-25 23:25 | 10.78119 | 123.02178 | 37 ft | 15 kts | 209° |
| 2026-04-25 23:25 | 10.78099 | 123.02166 | 37 ft | 12 kts | 211° |
| 2026-04-25 23:25 | 10.78026 | 123.02125 | 37 ft | 13 kts | 209° |
| 2026-04-25 23:25 | 10.77944 | 123.02078 | 37 ft | 14 kts | 210° |
| 2026-04-25 23:26 | 10.77865 | 123.02029 | 37 ft | 12 kts | 212° |
| 2026-04-25 23:26 | 10.77787 | 123.01984 | 37 ft | 13 kts | 208° |
| 2026-04-25 23:26 | 10.77704 | 123.01935 | 37 ft | 13 kts | 220° |
| 2026-04-25 23:26 | 10.77689 | 123.01856 | 37 ft | 12 kts | 292° |
| 2026-04-25 23:27 | 10.77732 | 123.01779 | 36 ft | 12 kts | 302° |
| 2026-04-25 23:27 | 10.77742 | 123.01707 | 36 ft | 10 kts | 236° |
| 2026-04-25 23:27 | 10.77684 | 123.01666 | 36 ft | 10 kts | 211° |
| 2026-04-25 23:27 | 10.77647 | 123.01636 | 36 ft | 4 kts | 265° |
| 2026-04-25 23:28 | 10.77660 | 123.01602 | 36 ft | 4 kts | 301° |
| 2026-04-25 23:28 | 10.77672 | 123.01582 | 36 ft | 2 kts | 301° |
| 2026-04-25 23:28 | 10.77674 | 123.01578 | 36 ft | 0 kts | 301° |